createdAt,value
2023-12-09T00:01:42.199Z,25.50
2023-12-09T00:04:09.990Z,21.63
2023-12-09T00:06:38.262Z,27.23
2023-12-09T00:09:06.271Z,30.30
2023-12-09T00:11:35.677Z,22.60
2023-12-09T00:14:05.472Z,24.25
2023-12-09T00:16:33.373Z,23.38
2023-12-09T00:19:01.407Z,20.63
2023-12-09T00:21:29.601Z,16.75
2023-12-09T00:23:58.750Z,23.67
2023-12-09T00:26:26.591Z,17.48
2023-12-09T00:28:56.038Z,16.55
2023-12-09T00:31:23.790Z,18.42
2023-12-09T00:33:51.596Z,17.27
2023-12-09T00:36:19.476Z,16.73
2023-12-09T00:38:47.268Z,18.73
2023-12-09T00:41:15.246Z,14.88
2023-12-09T00:43:43.051Z,17.88
2023-12-09T00:46:12.287Z,14.73
2023-12-09T00:48:40.278Z,15.98
2023-12-09T00:51:08.738Z,17.67
2023-12-09T00:53:36.629Z,21.15
2023-12-09T00:56:04.603Z,12.30
2023-12-09T00:58:32.375Z,21.75
2023-12-09T01:01:00.250Z,17.60
2023-12-09T01:03:29.583Z,18.90
2023-12-09T01:05:57.488Z,17.92
2023-12-09T01:08:26.926Z,15.65
2023-12-09T01:10:54.949Z,17.02
2023-12-09T01:13:22.744Z,15.88
2023-12-09T01:15:50.513Z,13.27
2023-12-09T01:18:18.385Z,19.00
2023-12-09T01:20:47.555Z,14.40
2023-12-09T01:23:15.305Z,18.23
2023-12-09T01:25:43.080Z,15.85
2023-12-09T01:28:10.856Z,14.60
2023-12-09T01:30:38.707Z,14.38
2023-12-09T01:33:06.825Z,15.30
2023-12-09T01:35:34.824Z,10.45
2023-12-09T01:38:04.482Z,17.90
2023-12-09T01:40:32.291Z,19.17
2023-12-09T01:43:00.052Z,15.45
2023-12-09T01:45:30.246Z,13.77
2023-12-09T01:47:58.131Z,16.10
2023-12-09T01:50:26.074Z,19.02
2023-12-09T01:52:54.168Z,10.18
2023-12-09T01:55:23.554Z,17.35
2023-12-09T01:57:52.564Z,11.63
2023-12-09T02:00:22.299Z,11.40
2023-12-09T02:02:50.633Z,8.82
2023-12-09T02:05:18.891Z,17.33
2023-12-09T02:07:46.717Z,13.68
2023-12-09T02:10:14.537Z,20.67
2023-12-09T02:12:51.700Z,13.13
2023-12-09T02:15:26.340Z,16.10
2023-12-09T02:17:58.484Z,11.48
2023-12-09T02:20:27.175Z,10.10
2023-12-09T02:23:05.909Z,11.20
2023-12-09T02:25:33.771Z,13.20
2023-12-09T02:28:04.853Z,12.05
2023-12-09T02:30:41.341Z,12.20
2023-12-09T02:33:12.453Z,12.18
2023-12-09T02:35:45.178Z,12.48
2023-12-09T02:38:16.871Z,13.20
2023-12-09T02:40:45.327Z,13.15
2023-12-09T02:43:13.537Z,10.48
2023-12-09T02:45:41.842Z,13.75
2023-12-09T02:48:09.899Z,17.65
2023-12-09T02:50:38.026Z,14.20
2023-12-09T02:53:06.025Z,12.85
2023-12-09T02:55:35.110Z,11.75
2023-12-09T02:58:02.862Z,11.40
2023-12-09T03:00:30.661Z,8.40
2023-12-09T03:02:58.596Z,11.82
2023-12-09T03:05:26.572Z,9.45
2023-12-09T03:07:54.348Z,11.73
2023-12-09T03:10:22.091Z,10.32
2023-12-09T03:12:51.154Z,9.02
2023-12-09T03:15:19.043Z,8.82
2023-12-09T03:17:47.027Z,10.65
2023-12-09T03:20:14.914Z,10.68
2023-12-09T03:22:42.644Z,11.48
2023-12-09T03:25:10.743Z,10.48
2023-12-09T03:27:38.532Z,11.07
2023-12-09T03:30:09.627Z,11.13
2023-12-09T03:32:40.307Z,11.80
2023-12-09T03:35:11.032Z,10.35
2023-12-09T03:37:38.847Z,9.32
2023-12-09T03:40:07.873Z,11.57
2023-12-09T03:42:35.701Z,10.65
2023-12-09T03:45:03.592Z,11.45
2023-12-09T03:47:32.724Z,13.32
2023-12-09T03:50:00.519Z,10.60
2023-12-09T03:52:28.928Z,9.13
2023-12-09T03:54:56.950Z,8.25
2023-12-09T03:57:24.930Z,10.18
2023-12-09T03:59:53.004Z,9.13
2023-12-09T04:02:21.056Z,9.85
2023-12-09T04:04:50.201Z,8.32
2023-12-09T04:07:18.291Z,9.43
2023-12-09T04:09:46.011Z,8.95
2023-12-09T04:12:13.822Z,9.32
2023-12-09T04:14:42.431Z,8.77
2023-12-09T04:17:10.135Z,8.02
2023-12-09T04:19:38.123Z,12.13
2023-12-09T04:22:07.789Z,8.38
2023-12-09T04:24:35.661Z,9.75
2023-12-09T04:27:03.508Z,8.32
2023-12-09T04:29:31.432Z,6.93
2023-12-09T04:32:00.166Z,11.20
2023-12-09T04:34:28.112Z,7.82
2023-12-09T04:36:56.016Z,8.10
2023-12-09T04:39:25.090Z,13.60
2023-12-09T04:41:52.888Z,6.88
2023-12-09T04:44:20.673Z,7.53
2023-12-09T04:46:48.426Z,7.18
2023-12-09T04:49:16.341Z,7.68
2023-12-09T04:51:44.254Z,7.40
2023-12-09T04:54:12.098Z,6.90
2023-12-09T04:56:41.172Z,13.25
2023-12-09T04:59:09.901Z,7.63
2023-12-09T05:01:37.662Z,8.00
2023-12-09T05:04:05.973Z,7.95
2023-12-09T05:06:33.773Z,7.90
2023-12-09T05:09:01.638Z,6.88
2023-12-09T05:11:29.366Z,8.13
2023-12-09T05:13:58.496Z,10.57
2023-12-09T05:16:26.980Z,9.15
2023-12-09T05:18:55.199Z,8.20
2023-12-09T05:21:23.309Z,7.38
2023-12-09T05:24:03.939Z,13.57
2023-12-09T05:26:31.731Z,5.68
2023-12-09T05:29:00.901Z,6.85
2023-12-09T05:31:28.632Z,8.73
2023-12-09T05:33:56.644Z,5.93
2023-12-09T05:36:24.464Z,8.93
2023-12-09T05:38:52.210Z,14.40
2023-12-09T05:41:19.929Z,5.13
2023-12-09T05:43:47.661Z,16.33
2023-12-09T05:46:20.674Z,6.57
2023-12-09T05:48:49.018Z,9.68
2023-12-09T05:51:17.077Z,5.38
2023-12-09T05:53:44.955Z,6.65
2023-12-09T05:56:13.730Z,11.55
2023-12-09T05:58:41.660Z,13.05
2023-12-09T06:01:10.256Z,6.47
2023-12-09T06:03:39.721Z,6.07
2023-12-09T06:06:06.946Z,6.68
2023-12-09T06:08:34.996Z,9.20
2023-12-09T06:11:02.887Z,7.55
2023-12-09T06:13:31.253Z,10.27
2023-12-09T06:15:58.968Z,7.32
2023-12-09T06:18:27.213Z,5.82
2023-12-09T06:20:56.384Z,5.95
2023-12-09T06:23:24.148Z,10.57
2023-12-09T06:25:51.907Z,7.53
2023-12-09T06:28:19.645Z,12.38
2023-12-09T06:30:47.645Z,6.63
2023-12-09T06:33:16.917Z,5.97
2023-12-09T06:35:47.751Z,9.57
2023-12-09T06:38:16.829Z,6.45
2023-12-09T06:40:44.888Z,9.07
2023-12-09T06:43:12.611Z,7.65
2023-12-09T06:45:43.433Z,7.32
2023-12-09T06:48:11.408Z,7.05
2023-12-09T06:50:39.199Z,7.40
2023-12-09T06:53:07.759Z,5.65
2023-12-09T06:55:36.912Z,7.50
2023-12-09T06:58:04.667Z,6.18
2023-12-09T07:00:32.494Z,5.32
2023-12-09T07:03:01.124Z,7.68
2023-12-09T07:05:29.143Z,9.50
2023-12-09T07:07:56.919Z,7.38
2023-12-09T07:10:24.647Z,7.60
2023-12-09T07:12:53.838Z,4.95
2023-12-09T07:15:21.693Z,5.53
2023-12-09T07:17:49.640Z,6.30
2023-12-09T07:20:17.519Z,9.30
2023-12-09T07:22:45.485Z,2.75
2023-12-09T07:25:13.371Z,10.07
2023-12-09T07:27:41.148Z,5.22
2023-12-09T07:30:11.179Z,6.57
2023-12-09T07:32:39.050Z,5.22
2023-12-09T07:35:07.572Z,6.45
2023-12-09T07:37:35.319Z,6.53
2023-12-09T07:40:05.841Z,7.05
2023-12-09T07:42:33.730Z,7.93
2023-12-09T07:45:01.532Z,5.35
2023-12-09T07:47:31.081Z,6.25
2023-12-09T07:49:58.852Z,7.25
2023-12-09T07:52:27.036Z,4.72
2023-12-09T07:54:55.241Z,12.20
2023-12-09T07:57:23.100Z,6.18
2023-12-09T07:59:50.950Z,4.75
2023-12-09T08:02:18.762Z,5.00
2023-12-09T08:04:47.850Z,5.20
2023-12-09T08:07:15.589Z,3.95
2023-12-09T08:09:43.464Z,10.70
2023-12-09T08:12:12.927Z,5.15
2023-12-09T08:14:40.770Z,10.70
2023-12-09T08:17:08.490Z,8.18
2023-12-09T08:19:36.360Z,12.30
2023-12-09T08:22:05.859Z,5.97
2023-12-09T08:24:33.662Z,5.35
2023-12-09T08:27:01.464Z,4.88
2023-12-09T08:29:29.957Z,4.68
2023-12-09T08:31:58.703Z,5.55
2023-12-09T08:34:26.672Z,4.70
2023-12-09T08:36:54.539Z,3.08
2023-12-09T08:39:24.462Z,4.13
2023-12-09T08:41:52.262Z,5.45
2023-12-09T08:44:20.041Z,5.95
2023-12-09T08:46:47.780Z,4.57
2023-12-09T08:49:15.651Z,4.57
2023-12-09T08:51:46.876Z,6.55
2023-12-09T08:54:15.582Z,3.80
2023-12-09T08:56:44.691Z,2.97
2023-12-09T08:59:12.613Z,3.72
2023-12-09T09:01:40.821Z,2.88
2023-12-09T09:04:08.732Z,4.03
2023-12-09T09:06:36.559Z,3.05
2023-12-09T09:09:05.566Z,8.55
2023-12-09T09:11:33.330Z,4.38
2023-12-09T09:14:02.427Z,2.58
2023-12-09T09:16:30.187Z,2.85
2023-12-09T09:18:58.390Z,4.50
2023-12-09T09:21:26.300Z,2.05
2023-12-09T09:23:54.093Z,3.22
2023-12-09T09:26:22.937Z,1.40
2023-12-09T09:28:50.817Z,4.13
2023-12-09T09:31:20.007Z,2.63
2023-12-09T09:33:47.916Z,2.53
2023-12-09T09:36:18.093Z,4.75
2023-12-09T09:38:46.022Z,4.90
2023-12-09T09:41:19.500Z,4.78
2023-12-09T09:43:49.678Z,1.33
2023-12-09T09:46:21.152Z,3.22
2023-12-09T09:48:54.223Z,2.25
2023-12-09T09:51:27.850Z,3.28
2023-12-09T09:54:07.457Z,3.13
2023-12-09T09:56:36.433Z,1.10
2023-12-09T09:59:08.000Z,1.88
2023-12-09T10:01:38.421Z,2.03
2023-12-09T10:04:07.911Z,5.93
2023-12-09T10:06:37.349Z,4.05
2023-12-09T10:09:05.737Z,2.42
2023-12-09T10:11:34.002Z,4.70
2023-12-09T10:14:01.791Z,0.88
2023-12-09T10:16:29.524Z,3.40
2023-12-09T10:18:58.698Z,1.63
2023-12-09T10:21:27.915Z,2.85
2023-12-09T10:23:55.648Z,0.43
2023-12-09T10:26:23.847Z,3.35
2023-12-09T10:28:52.014Z,3.70
2023-12-09T10:31:20.026Z,5.85
2023-12-09T10:33:48.068Z,3.65
2023-12-09T10:36:16.251Z,1.98
2023-12-09T10:38:45.556Z,2.85
2023-12-09T10:41:14.777Z,5.63
2023-12-09T10:43:42.965Z,1.20
2023-12-09T10:46:10.930Z,3.08
2023-12-09T10:48:38.944Z,4.40
2023-12-09T10:51:06.975Z,3.80
2023-12-09T10:53:34.738Z,1.60
2023-12-09T10:56:04.551Z,5.68
2023-12-09T10:58:35.110Z,3.40
2023-12-09T11:01:05.164Z,4.55
2023-12-09T11:03:34.445Z,3.33
2023-12-09T11:06:07.088Z,4.65
2023-12-09T11:08:37.924Z,1.98
2023-12-09T11:11:09.288Z,1.95
2023-12-09T11:13:37.575Z,0.95
2023-12-09T11:16:13.305Z,4.30
2023-12-09T11:18:50.259Z,2.72
2023-12-09T11:21:19.039Z,2.22
2023-12-09T11:23:50.105Z,3.20
2023-12-09T11:26:20.868Z,4.40
2023-12-09T11:29:05.530Z,2.72
2023-12-09T11:31:35.194Z,4.18
2023-12-09T11:34:03.526Z,3.30
2023-12-09T11:36:36.766Z,1.23
2023-12-09T11:39:07.777Z,1.45
2023-12-09T11:41:37.146Z,2.00
2023-12-09T11:44:05.867Z,5.03
2023-12-09T11:46:34.431Z,1.70
2023-12-09T11:49:04.138Z,12.23
2023-12-09T11:51:33.642Z,2.92
2023-12-09T11:54:02.916Z,5.50
2023-12-09T11:56:30.785Z,5.43
2023-12-09T11:59:00.623Z,3.45
2023-12-09T12:01:30.431Z,4.25
2023-12-09T12:03:58.334Z,1.40
2023-12-09T12:06:26.348Z,4.32
2023-12-09T12:08:55.738Z,4.60
2023-12-09T12:11:25.601Z,3.17
2023-12-09T12:13:54.727Z,2.50
2023-12-09T12:16:24.389Z,2.15
2023-12-09T12:18:52.265Z,2.55
2023-12-09T12:21:20.819Z,4.97
2023-12-09T12:23:52.792Z,2.38
2023-12-09T12:26:20.851Z,2.80
2023-12-09T12:28:49.904Z,6.32
2023-12-09T12:31:17.913Z,3.35
2023-12-09T12:33:47.284Z,4.03
2023-12-09T12:36:15.458Z,2.83
2023-12-09T12:38:43.357Z,2.28
2023-12-09T12:41:11.189Z,2.03
2023-12-09T12:43:39.048Z,3.10
2023-12-09T12:46:08.026Z,1.65
2023-12-09T12:48:35.981Z,1.73
2023-12-09T12:51:05.309Z,2.92
2023-12-09T12:53:33.306Z,6.05
2023-12-09T12:56:01.208Z,3.72
2023-12-09T12:58:30.588Z,3.03
2023-12-09T13:00:58.515Z,4.70
2023-12-09T13:03:26.776Z,8.93
2023-12-09T13:05:54.722Z,1.65
2023-12-09T13:08:23.899Z,3.67
2023-12-09T13:10:51.724Z,3.95
2023-12-09T13:13:19.559Z,1.55
2023-12-09T13:15:47.533Z,8.40
2023-12-09T13:18:15.713Z,2.35
2023-12-09T13:20:46.603Z,4.03
2023-12-09T13:23:14.631Z,1.85
2023-12-09T13:25:44.124Z,1.90
2023-12-09T13:28:12.086Z,1.23
2023-12-09T13:30:40.228Z,2.33
2023-12-09T13:33:08.181Z,1.88
2023-12-09T13:35:36.136Z,2.70
2023-12-09T13:38:05.117Z,1.55
2023-12-09T13:40:33.060Z,1.00
2023-12-09T13:43:02.252Z,2.60
2023-12-09T13:45:36.888Z,1.33
2023-12-09T13:48:05.941Z,2.33
2023-12-09T13:50:35.627Z,1.30
2023-12-09T13:53:04.476Z,3.15
2023-12-09T13:55:32.291Z,3.85
2023-12-09T13:58:00.128Z,4.47
2023-12-09T14:00:29.371Z,2.45
2023-12-09T14:02:58.301Z,1.95
2023-12-09T14:05:26.399Z,1.35
2023-12-09T14:07:55.295Z,0.80
2023-12-09T14:10:23.655Z,1.77
2023-12-09T14:12:51.563Z,1.00
2023-12-09T14:15:19.489Z,3.22
2023-12-09T14:17:49.113Z,4.22
2023-12-09T14:20:17.426Z,1.73
2023-12-09T14:22:46.662Z,0.82
2023-12-09T14:25:15.051Z,2.22
2023-12-09T14:27:43.077Z,2.55
2023-12-09T14:30:12.548Z,4.72
2023-12-09T14:32:44.914Z,7.22
2023-12-09T14:35:15.369Z,1.20
2023-12-09T14:37:43.939Z,2.08
2023-12-09T14:40:12.430Z,1.08
2023-12-09T14:42:40.272Z,1.38
2023-12-09T14:45:10.554Z,1.67
2023-12-09T14:47:39.166Z,1.95
2023-12-09T14:50:10.024Z,2.03
2023-12-09T14:52:39.384Z,1.52
2023-12-09T14:55:08.208Z,4.50
2023-12-09T14:57:36.119Z,0.95
2023-12-09T15:00:04.719Z,2.63
2023-12-09T15:02:32.573Z,1.65
2023-12-09T15:05:00.463Z,1.38
2023-12-09T15:07:28.365Z,2.75
2023-12-09T15:09:57.650Z,1.35
2023-12-09T15:12:27.933Z,1.33
2023-12-09T15:14:57.905Z,2.85
2023-12-09T15:17:26.350Z,2.30
2023-12-09T15:19:54.398Z,3.55
2023-12-09T15:22:22.765Z,1.08
2023-12-09T15:24:50.609Z,3.38
2023-12-09T15:27:19.995Z,3.95
2023-12-09T15:29:47.920Z,3.45
2023-12-09T15:32:15.865Z,2.95
2023-12-09T15:34:43.818Z,4.07
2023-12-09T15:37:12.073Z,2.65
2023-12-09T15:39:40.518Z,1.27
2023-12-09T15:42:08.814Z,0.68
2023-12-09T15:44:38.082Z,1.23
2023-12-09T15:47:07.549Z,1.95
2023-12-09T15:49:35.648Z,4.50
2023-12-09T15:52:03.681Z,1.73
2023-12-09T15:54:31.566Z,1.10
2023-12-09T15:57:03.281Z,2.90
2023-12-09T15:59:31.554Z,6.80
2023-12-09T16:02:00.843Z,3.80
2023-12-09T16:04:28.812Z,2.13
2023-12-09T16:06:56.758Z,0.60
2023-12-09T16:09:24.640Z,3.58
2023-12-09T16:11:52.504Z,1.10
2023-12-09T16:14:20.389Z,6.88
2023-12-09T16:16:48.218Z,6.03
2023-12-09T16:19:17.465Z,2.30
2023-12-09T16:21:45.457Z,6.30
2023-12-09T16:24:13.349Z,1.38
2023-12-09T16:26:41.846Z,1.48
2023-12-09T16:29:10.476Z,5.25
2023-12-09T16:31:39.740Z,9.10
2023-12-09T16:34:07.916Z,1.40
2023-12-09T16:36:37.200Z,5.53
2023-12-09T16:39:05.225Z,3.45
2023-12-09T16:41:33.165Z,5.75
2023-12-09T16:44:01.118Z,2.97
2023-12-09T16:46:29.682Z,2.35
2023-12-09T16:48:57.805Z,4.22
2023-12-09T16:51:25.754Z,5.10
2023-12-09T16:53:54.968Z,4.03
2023-12-09T16:56:22.878Z,1.52
2023-12-09T16:58:50.708Z,4.78
2023-12-09T17:01:18.635Z,2.55
2023-12-09T17:03:47.342Z,11.68
2023-12-09T17:06:15.296Z,0.75
2023-12-09T17:08:43.208Z,2.20
2023-12-09T17:11:12.418Z,13.38
2023-12-09T17:13:40.244Z,2.05
2023-12-09T17:16:08.950Z,2.53
2023-12-09T17:18:36.970Z,2.60
2023-12-09T17:21:04.951Z,2.72
2023-12-09T17:23:33.451Z,1.73
2023-12-09T17:26:01.358Z,1.67
2023-12-09T17:28:30.870Z,3.00
2023-12-09T17:30:58.720Z,3.72
2023-12-09T17:33:26.614Z,5.95
2023-12-09T17:35:54.658Z,13.13
2023-12-09T17:38:22.757Z,10.10
2023-12-09T17:40:50.620Z,5.22
2023-12-09T17:43:19.793Z,10.20
2023-12-09T17:45:51.299Z,6.03
2023-12-09T17:48:20.698Z,3.55
2023-12-09T17:50:48.648Z,7.15
2023-12-09T17:53:20.503Z,4.22
2023-12-09T17:55:48.857Z,5.13
2023-12-09T17:58:17.103Z,3.78
2023-12-09T18:00:45.211Z,2.05
2023-12-09T18:03:14.625Z,4.25
2023-12-09T18:05:42.879Z,2.25
2023-12-09T18:08:11.108Z,6.35
2023-12-09T18:10:38.945Z,3.70
2023-12-09T18:13:06.746Z,4.82
2023-12-09T18:15:34.595Z,5.10
2023-12-09T18:18:02.479Z,5.45
2023-12-09T18:20:31.697Z,4.32
2023-12-09T18:23:00.601Z,4.55
2023-12-09T18:25:30.818Z,3.35
2023-12-09T18:27:58.818Z,2.75
2023-12-09T18:30:27.003Z,6.03
2023-12-09T18:32:56.853Z,1.92
2023-12-09T18:35:24.849Z,3.72
2023-12-09T18:37:54.219Z,2.30
2023-12-09T18:40:23.926Z,2.63
2023-12-09T18:42:52.514Z,4.15
2023-12-09T18:45:20.725Z,3.42
2023-12-09T18:47:48.721Z,1.63
2023-12-09T18:50:16.608Z,1.02
2023-12-09T18:52:44.446Z,1.45
2023-12-09T18:55:13.615Z,3.15
2023-12-09T18:57:41.779Z,2.08
2023-12-09T19:00:10.368Z,0.98
2023-12-09T19:02:38.299Z,1.55
2023-12-09T19:05:06.724Z,3.35
2023-12-09T19:07:34.901Z,1.35
2023-12-09T19:10:06.151Z,1.27
2023-12-09T19:12:35.956Z,1.05
2023-12-09T19:15:03.917Z,3.72
2023-12-09T19:17:32.410Z,2.88
2023-12-09T19:20:00.643Z,1.00
2023-12-09T19:22:28.791Z,5.90
2023-12-09T19:24:56.779Z,1.48
2023-12-09T19:27:24.876Z,1.58
2023-12-09T19:29:54.081Z,0.75
2023-12-09T19:32:21.991Z,1.50
2023-12-09T19:34:49.982Z,2.47
2023-12-09T19:37:17.902Z,1.23
2023-12-09T19:39:45.818Z,3.80
2023-12-09T19:42:13.757Z,0.73
2023-12-09T19:44:41.630Z,0.45
2023-12-09T19:47:11.359Z,2.53
2023-12-09T19:49:39.356Z,1.30
2023-12-09T19:52:07.262Z,1.45
2023-12-09T19:54:35.186Z,1.27
2023-12-09T19:57:03.078Z,0.63
2023-12-09T19:59:32.110Z,1.80
2023-12-09T20:01:59.907Z,2.08
2023-12-09T20:04:29.255Z,0.93
2023-12-09T20:06:57.419Z,2.22
2023-12-09T20:09:25.597Z,0.80
2023-12-09T20:11:53.506Z,0.90
2023-12-09T20:14:21.369Z,1.25
2023-12-09T20:16:50.370Z,1.10
2023-12-09T20:19:18.372Z,3.75
2023-12-09T20:21:50.061Z,2.65
2023-12-09T20:24:17.944Z,0.15
2023-12-09T20:26:45.857Z,1.40
2023-12-09T20:29:13.904Z,0.40
2023-12-09T20:31:43.421Z,0.80
2023-12-09T20:34:12.168Z,3.40
2023-12-09T20:36:40.392Z,1.42
2023-12-09T20:39:11.951Z,4.15
2023-12-09T20:41:39.972Z,0.95
2023-12-09T20:44:07.828Z,3.65
2023-12-09T20:46:35.723Z,0.40
2023-12-09T20:49:03.630Z,0.25
2023-12-09T20:51:31.638Z,0.57
2023-12-09T20:53:59.460Z,5.00
2023-12-09T20:56:28.997Z,1.50
2023-12-09T20:58:56.954Z,0.77
2023-12-09T21:01:24.853Z,0.10
2023-12-09T21:03:52.792Z,1.33
2023-12-09T21:06:20.766Z,0.82
2023-12-09T21:08:48.653Z,1.60
2023-12-09T21:11:22.099Z,0.32
2023-12-09T21:13:51.386Z,1.95
2023-12-09T21:16:19.611Z,0.60
2023-12-09T21:18:47.522Z,1.10
2023-12-09T21:21:15.443Z,0.57
2023-12-09T21:23:43.732Z,0.25
2023-12-09T21:26:11.556Z,0.60
2023-12-09T21:28:39.423Z,0.77
2023-12-09T21:31:12.634Z,1.55
2023-12-09T21:33:40.522Z,0.22
2023-12-09T21:36:12.854Z,0.95
2023-12-09T21:38:40.907Z,3.30
2023-12-09T21:41:09.197Z,1.02
2023-12-09T21:43:38.071Z,0.30
2023-12-09T21:46:06.445Z,0.15
2023-12-09T21:48:35.741Z,0.25
2023-12-09T21:51:06.104Z,0.60
2023-12-09T21:53:33.968Z,0.47
2023-12-09T21:56:01.852Z,0.95
2023-12-09T21:58:29.796Z,1.35
2023-12-09T22:00:57.633Z,0.45
2023-12-09T22:03:25.579Z,0.28
2023-12-09T22:05:54.881Z,1.17
2023-12-09T22:08:22.753Z,0.70
2023-12-09T22:10:50.561Z,0.80
2023-12-09T22:13:18.378Z,0.75
2023-12-09T22:15:47.301Z,0.75
2023-12-09T22:18:15.388Z,0.35
2023-12-09T22:20:43.279Z,0.10
2023-12-09T22:23:12.530Z,0.20
2023-12-09T22:25:40.401Z,0.22
2023-12-09T22:28:08.281Z,0.00
2023-12-09T22:30:36.110Z,1.20
2023-12-09T22:33:04.118Z,0.00
2023-12-09T22:35:33.073Z,0.45
2023-12-09T22:38:02.459Z,0.20
2023-12-09T22:40:31.757Z,0.38
2023-12-09T22:42:59.877Z,0.20
2023-12-09T22:45:27.747Z,0.30
2023-12-09T22:47:55.789Z,0.85
2023-12-09T22:50:23.817Z,0.38
2023-12-09T22:52:51.660Z,0.00
2023-12-09T22:55:19.514Z,0.50
2023-12-09T22:57:49.068Z,0.65
2023-12-09T23:00:28.257Z,0.35
2023-12-09T23:02:56.290Z,0.80
2023-12-09T23:05:24.941Z,0.10
2023-12-09T23:07:52.752Z,0.00
2023-12-09T23:10:20.621Z,0.30
2023-12-09T23:12:50.054Z,0.40
2023-12-09T23:15:18.100Z,0.45
2023-12-09T23:17:45.960Z,0.20
2023-12-09T23:20:13.859Z,0.10
2023-12-09T23:22:41.680Z,0.85
2023-12-09T23:25:09.969Z,0.00
2023-12-09T23:27:37.807Z,0.52
2023-12-09T23:30:09.193Z,0.32
2023-12-09T23:32:37.131Z,1.35
2023-12-09T23:35:05.521Z,0.13
2023-12-09T23:37:33.892Z,0.20
2023-12-09T23:40:01.736Z,0.05
2023-12-09T23:42:29.799Z,0.80
2023-12-09T23:44:57.765Z,0.03
2023-12-09T23:47:26.960Z,0.00
2023-12-09T23:49:54.861Z,1.65
2023-12-09T23:52:23.123Z,1.40
2023-12-09T23:54:51.042Z,0.15
2023-12-09T23:57:18.939Z,0.00
2023-12-09T23:59:46.777Z,0.10
